sensor_id;sensor_type;location;lat;lon;timestamp;temperature;humidity
324;DHT22;149;51.094;17.002;2023-04-25T00:00:51;9.60;99.90
324;DHT22;149;51.094;17.002;2023-04-25T00:03:19;9.60;99.90
324;DHT22;149;51.094;17.002;2023-04-25T00:05:47;9.70;99.90
324;DHT22;149;51.094;17.002;2023-04-25T00:08:15;9.70;99.90
324;DHT22;149;51.094;17.002;2023-04-25T00:10:42;9.70;99.90
324;DHT22;149;51.094;17.002;2023-04-25T00:13:10;10.00;99.90
324;DHT22;149;51.094;17.002;2023-04-25T00:15:38;9.80;99.90
324;DHT22;149;51.094;17.002;2023-04-25T00:18:05;9.80;99.90
324;DHT22;149;51.094;17.002;2023-04-25T00:20:32;9.90;99.90
324;DHT22;149;51.094;17.002;2023-04-25T00:23:00;10.00;99.90
324;DHT22;149;51.094;17.002;2023-04-25T00:25:26;9.90;99.90
324;DHT22;149;51.094;17.002;2023-04-25T00:27:54;9.80;99.90
324;DHT22;149;51.094;17.002;2023-04-25T00:30:21;9.60;99.90
324;DHT22;149;51.094;17.002;2023-04-25T00:32:48;9.70;99.90
324;DHT22;149;51.094;17.002;2023-04-25T00:35:15;9.60;99.90
324;DHT22;149;51.094;17.002;2023-04-25T00:37:42;9.60;99.90
324;DHT22;149;51.094;17.002;2023-04-25T00:40:09;9.50;99.90
324;DHT22;149;51.094;17.002;2023-04-25T00:42:37;9.50;99.90
324;DHT22;149;51.094;17.002;2023-04-25T00:45:06;9.50;99.90
324;DHT22;149;51.094;17.002;2023-04-25T00:47:35;9.40;99.90
324;DHT22;149;51.094;17.002;2023-04-25T00:50:02;9.40;99.90
324;DHT22;149;51.094;17.002;2023-04-25T00:52:29;9.40;99.90
324;DHT22;149;51.094;17.002;2023-04-25T00:54:56;9.40;99.90
324;DHT22;149;51.094;17.002;2023-04-25T00:57:24;9.40;99.90
324;DHT22;149;51.094;17.002;2023-04-25T00:59:51;9.30;99.90
324;DHT22;149;51.094;17.002;2023-04-25T01:02:20;9.30;99.90
324;DHT22;149;51.094;17.002;2023-04-25T01:04:48;9.30;99.90
324;DHT22;149;51.094;17.002;2023-04-25T01:07:15;9.30;99.90
324;DHT22;149;51.094;17.002;2023-04-25T01:09:43;9.20;99.90
324;DHT22;149;51.094;17.002;2023-04-25T01:12:09;9.90;99.90
324;DHT22;149;51.094;17.002;2023-04-25T01:14:37;9.30;99.90
324;DHT22;149;51.094;17.002;2023-04-25T01:17:04;9.20;99.90
324;DHT22;149;51.094;17.002;2023-04-25T01:19:33;9.10;99.90
324;DHT22;149;51.094;17.002;2023-04-25T01:21:59;9.20;99.90
324;DHT22;149;51.094;17.002;2023-04-25T01:24:27;9.20;99.90
324;DHT22;149;51.094;17.002;2023-04-25T01:26:54;9.40;99.90
324;DHT22;149;51.094;17.002;2023-04-25T01:29:23;9.10;99.90
324;DHT22;149;51.094;17.002;2023-04-25T01:31:52;9.20;99.90
324;DHT22;149;51.094;17.002;2023-04-25T01:34:19;9.10;99.90
324;DHT22;149;51.094;17.002;2023-04-25T01:36:50;9.10;99.90
324;DHT22;149;51.094;17.002;2023-04-25T01:39:18;9.10;99.90
324;DHT22;149;51.094;17.002;2023-04-25T01:41:48;10.00;99.90
324;DHT22;149;51.094;17.002;2023-04-25T01:44:15;9.00;99.90
324;DHT22;149;51.094;17.002;2023-04-25T01:46:42;9.00;99.90
324;DHT22;149;51.094;17.002;2023-04-25T01:49:10;9.00;99.90
324;DHT22;149;51.094;17.002;2023-04-25T01:51:36;8.90;99.90
324;DHT22;149;51.094;17.002;2023-04-25T01:54:04;8.90;99.90
324;DHT22;149;51.094;17.002;2023-04-25T01:56:32;8.90;99.90
324;DHT22;149;51.094;17.002;2023-04-25T01:58:59;8.80;99.90
324;DHT22;149;51.094;17.002;2023-04-25T02:01:26;8.80;99.90
324;DHT22;149;51.094;17.002;2023-04-25T02:03:53;8.80;99.90
324;DHT22;149;51.094;17.002;2023-04-25T02:06:21;8.80;99.90
324;DHT22;149;51.094;17.002;2023-04-25T02:08:48;8.70;99.90
324;DHT22;149;51.094;17.002;2023-04-25T02:11:15;8.70;99.90
324;DHT22;149;51.094;17.002;2023-04-25T02:13:42;8.80;99.90
324;DHT22;149;51.094;17.002;2023-04-25T02:16:09;8.50;99.90
324;DHT22;149;51.094;17.002;2023-04-25T02:18:36;8.50;99.90
324;DHT22;149;51.094;17.002;2023-04-25T02:21:05;8.50;99.90
324;DHT22;149;51.094;17.002;2023-04-25T02:23:32;8.40;99.90
324;DHT22;149;51.094;17.002;2023-04-25T02:25:59;9.40;99.90
324;DHT22;149;51.094;17.002;2023-04-25T02:28:26;8.30;99.90
324;DHT22;149;51.094;17.002;2023-04-25T02:30:53;8.40;99.90
324;DHT22;149;51.094;17.002;2023-04-25T02:33:20;8.40;99.90
324;DHT22;149;51.094;17.002;2023-04-25T02:35:47;8.40;99.90
324;DHT22;149;51.094;17.002;2023-04-25T02:38:14;8.40;99.90
324;DHT22;149;51.094;17.002;2023-04-25T02:40:41;8.30;99.90
324;DHT22;149;51.094;17.002;2023-04-25T02:43:08;8.30;99.90
324;DHT22;149;51.094;17.002;2023-04-25T02:45:35;8.30;99.90
324;DHT22;149;51.094;17.002;2023-04-25T02:48:03;8.30;99.90
324;DHT22;149;51.094;17.002;2023-04-25T02:50:31;8.30;99.90
324;DHT22;149;51.094;17.002;2023-04-25T02:52:58;8.30;99.90
324;DHT22;149;51.094;17.002;2023-04-25T02:55:24;9.00;99.90
324;DHT22;149;51.094;17.002;2023-04-25T02:57:54;8.20;99.90
324;DHT22;149;51.094;17.002;2023-04-25T03:00:22;8.20;99.90
324;DHT22;149;51.094;17.002;2023-04-25T03:02:51;8.10;99.90
324;DHT22;149;51.094;17.002;2023-04-25T03:05:18;8.10;99.90
324;DHT22;149;51.094;17.002;2023-04-25T03:07:45;8.10;99.90
324;DHT22;149;51.094;17.002;2023-04-25T03:10:14;8.00;99.90
324;DHT22;149;51.094;17.002;2023-04-25T03:12:41;8.10;99.90
324;DHT22;149;51.094;17.002;2023-04-25T03:15:09;8.00;99.90
324;DHT22;149;51.094;17.002;2023-04-25T03:17:35;8.00;99.90
324;DHT22;149;51.094;17.002;2023-04-25T03:20:03;8.00;99.90
324;DHT22;149;51.094;17.002;2023-04-25T03:22:30;8.00;99.90
324;DHT22;149;51.094;17.002;2023-04-25T03:24:58;8.10;99.90
324;DHT22;149;51.094;17.002;2023-04-25T03:27:24;8.10;99.90
324;DHT22;149;51.094;17.002;2023-04-25T03:29:52;8.10;99.90
324;DHT22;149;51.094;17.002;2023-04-25T03:32:19;8.10;99.90
324;DHT22;149;51.094;17.002;2023-04-25T03:34:46;8.30;99.90
324;DHT22;149;51.094;17.002;2023-04-25T03:37:13;8.00;99.90
324;DHT22;149;51.094;17.002;2023-04-25T03:39:40;8.20;99.90
324;DHT22;149;51.094;17.002;2023-04-25T03:42:07;8.10;99.90
324;DHT22;149;51.094;17.002;2023-04-25T03:44:34;8.20;99.90
324;DHT22;149;51.094;17.002;2023-04-25T03:47:01;8.20;99.90
324;DHT22;149;51.094;17.002;2023-04-25T03:49:28;8.10;99.90
324;DHT22;149;51.094;17.002;2023-04-25T03:51:55;8.10;99.90
324;DHT22;149;51.094;17.002;2023-04-25T03:54:22;8.20;99.90
324;DHT22;149;51.094;17.002;2023-04-25T03:56:49;8.10;99.90
324;DHT22;149;51.094;17.002;2023-04-25T03:59:16;8.10;99.90
324;DHT22;149;51.094;17.002;2023-04-25T04:01:43;8.10;99.90
324;DHT22;149;51.094;17.002;2023-04-25T04:04:10;8.20;99.90
324;DHT22;149;51.094;17.002;2023-04-25T04:06:37;8.30;99.90
324;DHT22;149;51.094;17.002;2023-04-25T04:09:04;8.20;99.90
324;DHT22;149;51.094;17.002;2023-04-25T04:11:32;8.80;99.90
324;DHT22;149;51.094;17.002;2023-04-25T04:13:58;8.30;99.90
324;DHT22;149;51.094;17.002;2023-04-25T04:16:26;8.30;99.90
324;DHT22;149;51.094;17.002;2023-04-25T04:18:53;8.40;99.90
324;DHT22;149;51.094;17.002;2023-04-25T04:21:19;8.40;99.90
324;DHT22;149;51.094;17.002;2023-04-25T04:23:46;8.60;99.90
324;DHT22;149;51.094;17.002;2023-04-25T04:26:15;8.80;99.90
324;DHT22;149;51.094;17.002;2023-04-25T04:28:43;8.80;99.90
324;DHT22;149;51.094;17.002;2023-04-25T04:31:13;8.80;99.90
324;DHT22;149;51.094;17.002;2023-04-25T04:33:43;8.90;99.90
324;DHT22;149;51.094;17.002;2023-04-25T04:36:11;9.00;99.90
324;DHT22;149;51.094;17.002;2023-04-25T04:38:39;9.20;99.90
324;DHT22;149;51.094;17.002;2023-04-25T04:41:08;9.10;99.90
324;DHT22;149;51.094;17.002;2023-04-25T04:43:35;9.10;99.90
324;DHT22;149;51.094;17.002;2023-04-25T04:46:02;9.10;99.90
324;DHT22;149;51.094;17.002;2023-04-25T04:48:33;9.20;99.90
324;DHT22;149;51.094;17.002;2023-04-25T04:51:01;9.40;99.90
324;DHT22;149;51.094;17.002;2023-04-25T04:53:28;9.50;99.90
324;DHT22;149;51.094;17.002;2023-04-25T04:55:55;9.50;99.90
324;DHT22;149;51.094;17.002;2023-04-25T04:58:22;9.60;99.90
324;DHT22;149;51.094;17.002;2023-04-25T05:00:49;9.60;99.90
324;DHT22;149;51.094;17.002;2023-04-25T05:03:16;9.70;99.90
324;DHT22;149;51.094;17.002;2023-04-25T05:05:43;9.90;99.90
324;DHT22;149;51.094;17.002;2023-04-25T05:08:12;9.80;99.90
324;DHT22;149;51.094;17.002;2023-04-25T05:10:39;9.90;99.90
324;DHT22;149;51.094;17.002;2023-04-25T05:13:06;10.00;99.90
324;DHT22;149;51.094;17.002;2023-04-25T05:15:33;10.10;99.90
324;DHT22;149;51.094;17.002;2023-04-25T05:18:00;10.10;99.90
324;DHT22;149;51.094;17.002;2023-04-25T05:20:28;10.20;99.90
324;DHT22;149;51.094;17.002;2023-04-25T05:22:55;10.30;99.90
324;DHT22;149;51.094;17.002;2023-04-25T05:25:22;10.20;99.90
324;DHT22;149;51.094;17.002;2023-04-25T05:27:48;10.30;99.90
324;DHT22;149;51.094;17.002;2023-04-25T05:30:15;10.40;99.90
324;DHT22;149;51.094;17.002;2023-04-25T05:32:42;10.50;99.90
324;DHT22;149;51.094;17.002;2023-04-25T05:35:10;11.10;99.90
324;DHT22;149;51.094;17.002;2023-04-25T05:37:36;10.40;99.90
324;DHT22;149;51.094;17.002;2023-04-25T05:40:04;10.40;99.90
324;DHT22;149;51.094;17.002;2023-04-25T05:42:33;10.40;99.90
324;DHT22;149;51.094;17.002;2023-04-25T05:45:00;10.60;99.90
324;DHT22;149;51.094;17.002;2023-04-25T05:47:27;10.70;99.90
324;DHT22;149;51.094;17.002;2023-04-25T05:49:54;10.70;99.90
324;DHT22;149;51.094;17.002;2023-04-25T05:52:21;10.80;99.90
324;DHT22;149;51.094;17.002;2023-04-25T05:54:47;10.90;99.90
324;DHT22;149;51.094;17.002;2023-04-25T05:57:22;11.10;99.90
324;DHT22;149;51.094;17.002;2023-04-25T05:59:50;11.30;99.90
324;DHT22;149;51.094;17.002;2023-04-25T06:02:18;11.50;99.90
324;DHT22;149;51.094;17.002;2023-04-25T06:04:45;11.50;99.90
324;DHT22;149;51.094;17.002;2023-04-25T06:07:12;12.10;99.90
324;DHT22;149;51.094;17.002;2023-04-25T06:09:39;11.80;99.90
324;DHT22;149;51.094;17.002;2023-04-25T06:12:07;11.80;99.90
324;DHT22;149;51.094;17.002;2023-04-25T06:14:34;12.40;99.90
324;DHT22;149;51.094;17.002;2023-04-25T06:17:02;12.10;99.90
324;DHT22;149;51.094;17.002;2023-04-25T06:19:33;12.20;99.90
324;DHT22;149;51.094;17.002;2023-04-25T06:21:59;12.40;99.90
324;DHT22;149;51.094;17.002;2023-04-25T06:24:26;12.70;99.90
324;DHT22;149;51.094;17.002;2023-04-25T06:26:54;12.70;99.90
324;DHT22;149;51.094;17.002;2023-04-25T06:29:21;13.30;99.90
324;DHT22;149;51.094;17.002;2023-04-25T06:31:48;13.30;99.90
324;DHT22;149;51.094;17.002;2023-04-25T06:34:16;13.50;99.90
324;DHT22;149;51.094;17.002;2023-04-25T06:36:42;13.50;99.90
324;DHT22;149;51.094;17.002;2023-04-25T06:39:10;13.50;99.90
324;DHT22;149;51.094;17.002;2023-04-25T06:41:38;13.40;99.90
324;DHT22;149;51.094;17.002;2023-04-25T06:44:04;13.80;99.90
324;DHT22;149;51.094;17.002;2023-04-25T06:46:31;13.90;99.90
324;DHT22;149;51.094;17.002;2023-04-25T06:48:58;13.90;99.90
324;DHT22;149;51.094;17.002;2023-04-25T06:51:25;14.20;99.90
324;DHT22;149;51.094;17.002;2023-04-25T06:53:55;14.70;99.90
324;DHT22;149;51.094;17.002;2023-04-25T06:56:23;14.60;99.90
324;DHT22;149;51.094;17.002;2023-04-25T06:58:50;15.00;99.90
324;DHT22;149;51.094;17.002;2023-04-25T07:01:17;15.50;99.90
324;DHT22;149;51.094;17.002;2023-04-25T07:03:44;15.70;99.90
324;DHT22;149;51.094;17.002;2023-04-25T07:06:13;15.80;99.90
324;DHT22;149;51.094;17.002;2023-04-25T07:08:39;16.60;99.90
324;DHT22;149;51.094;17.002;2023-04-25T07:11:06;16.50;99.90
324;DHT22;149;51.094;17.002;2023-04-25T07:13:33;16.40;99.90
324;DHT22;149;51.094;17.002;2023-04-25T07:16:00;16.30;99.90
324;DHT22;149;51.094;17.002;2023-04-25T07:18:27;15.60;99.90
324;DHT22;149;51.094;17.002;2023-04-25T07:20:54;15.30;99.90
324;DHT22;149;51.094;17.002;2023-04-25T07:23:21;15.00;99.90
324;DHT22;149;51.094;17.002;2023-04-25T07:25:48;14.80;99.90
324;DHT22;149;51.094;17.002;2023-04-25T07:28:15;15.00;99.90
324;DHT22;149;51.094;17.002;2023-04-25T07:30:45;14.80;99.90
324;DHT22;149;51.094;17.002;2023-04-25T07:33:12;14.80;99.90
324;DHT22;149;51.094;17.002;2023-04-25T07:35:39;14.30;99.90
324;DHT22;149;51.094;17.002;2023-04-25T07:38:06;14.10;99.90
324;DHT22;149;51.094;17.002;2023-04-25T07:40:34;14.40;99.90
324;DHT22;149;51.094;17.002;2023-04-25T07:43:02;14.60;99.90
324;DHT22;149;51.094;17.002;2023-04-25T07:45:29;14.80;99.90
324;DHT22;149;51.094;17.002;2023-04-25T07:47:56;14.90;99.90
324;DHT22;149;51.094;17.002;2023-04-25T07:50:23;15.20;99.90
324;DHT22;149;51.094;17.002;2023-04-25T07:52:50;15.90;99.90
324;DHT22;149;51.094;17.002;2023-04-25T07:55:18;16.90;99.90
324;DHT22;149;51.094;17.002;2023-04-25T07:57:44;17.90;99.90
324;DHT22;149;51.094;17.002;2023-04-25T08:00:12;18.00;99.90
324;DHT22;149;51.094;17.002;2023-04-25T08:02:39;17.80;99.90
324;DHT22;149;51.094;17.002;2023-04-25T08:05:06;17.10;99.90
324;DHT22;149;51.094;17.002;2023-04-25T08:07:35;16.60;99.90
324;DHT22;149;51.094;17.002;2023-04-25T08:10:02;16.00;99.90
324;DHT22;149;51.094;17.002;2023-04-25T08:12:29;15.40;99.90
324;DHT22;149;51.094;17.002;2023-04-25T08:14:56;15.00;99.90
324;DHT22;149;51.094;17.002;2023-04-25T08:17:23;14.80;99.90
324;DHT22;149;51.094;17.002;2023-04-25T08:19:50;14.60;99.90
324;DHT22;149;51.094;17.002;2023-04-25T08:22:17;14.80;99.90
324;DHT22;149;51.094;17.002;2023-04-25T08:24:44;14.80;99.90
324;DHT22;149;51.094;17.002;2023-04-25T08:27:11;14.60;99.90
324;DHT22;149;51.094;17.002;2023-04-25T08:29:38;14.40;99.90
324;DHT22;149;51.094;17.002;2023-04-25T08:32:05;14.50;99.90
324;DHT22;149;51.094;17.002;2023-04-25T08:34:32;14.80;99.90
324;DHT22;149;51.094;17.002;2023-04-25T08:36:59;15.20;99.90
324;DHT22;149;51.094;17.002;2023-04-25T08:39:26;15.30;99.90
324;DHT22;149;51.094;17.002;2023-04-25T08:41:53;15.70;99.90
324;DHT22;149;51.094;17.002;2023-04-25T08:44:20;16.60;99.90
324;DHT22;149;51.094;17.002;2023-04-25T08:46:49;16.60;99.90
324;DHT22;149;51.094;17.002;2023-04-25T08:49:18;16.20;99.90
324;DHT22;149;51.094;17.002;2023-04-25T08:51:46;15.70;99.90
324;DHT22;149;51.094;17.002;2023-04-25T08:54:14;15.20;99.90
324;DHT22;149;51.094;17.002;2023-04-25T08:57:02;14.90;99.90
324;DHT22;149;51.094;17.002;2023-04-25T08:59:32;14.50;99.90
324;DHT22;149;51.094;17.002;2023-04-25T09:02:00;14.30;99.90
324;DHT22;149;51.094;17.002;2023-04-25T09:04:27;15.60;99.90
324;DHT22;149;51.094;17.002;2023-04-25T09:06:56;17.50;99.90
324;DHT22;149;51.094;17.002;2023-04-25T09:09:23;17.90;99.90
324;DHT22;149;51.094;17.002;2023-04-25T09:11:54;17.80;99.90
324;DHT22;149;51.094;17.002;2023-04-25T09:14:22;17.00;99.90
324;DHT22;149;51.094;17.002;2023-04-25T09:19:24;15.50;99.90
324;DHT22;149;51.094;17.002;2023-04-25T09:22:06;17.00;99.90
324;DHT22;149;51.094;17.002;2023-04-25T09:27:09;19.70;99.90
324;DHT22;149;51.094;17.002;2023-04-25T09:29:38;18.30;99.90
324;DHT22;149;51.094;17.002;2023-04-25T09:32:22;17.50;99.90
324;DHT22;149;51.094;17.002;2023-04-25T09:34:54;17.40;99.90
324;DHT22;149;51.094;17.002;2023-04-25T09:37:23;16.70;99.90
324;DHT22;149;51.094;17.002;2023-04-25T09:39:56;16.40;99.90
324;DHT22;149;51.094;17.002;2023-04-25T09:42:24;15.70;99.90
324;DHT22;149;51.094;17.002;2023-04-25T09:44:55;16.00;99.90
324;DHT22;149;51.094;17.002;2023-04-25T09:47:24;15.80;99.90
324;DHT22;149;51.094;17.002;2023-04-25T09:49:53;15.20;99.90
324;DHT22;149;51.094;17.002;2023-04-25T09:52:24;15.10;99.90
324;DHT22;149;51.094;17.002;2023-04-25T09:54:52;14.90;99.90
324;DHT22;149;51.094;17.002;2023-04-25T09:57:21;14.80;99.90
324;DHT22;149;51.094;17.002;2023-04-25T09:59:48;14.70;99.90
324;DHT22;149;51.094;17.002;2023-04-25T10:02:18;14.80;99.90
324;DHT22;149;51.094;17.002;2023-04-25T10:04:50;15.20;99.90
324;DHT22;149;51.094;17.002;2023-04-25T10:07:20;15.00;99.90
324;DHT22;149;51.094;17.002;2023-04-25T10:09:49;15.60;99.90
324;DHT22;149;51.094;17.002;2023-04-25T10:12:19;15.50;99.90
324;DHT22;149;51.094;17.002;2023-04-25T10:14:46;15.90;99.90
324;DHT22;149;51.094;17.002;2023-04-25T10:17:14;16.40;99.90
324;DHT22;149;51.094;17.002;2023-04-25T10:19:42;16.90;99.90
324;DHT22;149;51.094;17.002;2023-04-25T10:22:17;16.80;99.90
324;DHT22;149;51.094;17.002;2023-04-25T10:24:46;16.50;99.90
324;DHT22;149;51.094;17.002;2023-04-25T10:27:13;16.50;99.90
324;DHT22;149;51.094;17.002;2023-04-25T10:29:41;16.50;99.90
324;DHT22;149;51.094;17.002;2023-04-25T10:32:11;16.90;99.90
324;DHT22;149;51.094;17.002;2023-04-25T10:34:43;17.10;99.90
324;DHT22;149;51.094;17.002;2023-04-25T10:37:13;16.50;99.90
324;DHT22;149;51.094;17.002;2023-04-25T10:39:41;16.30;99.90
324;DHT22;149;51.094;17.002;2023-04-25T10:42:08;16.20;99.90
324;DHT22;149;51.094;17.002;2023-04-25T10:44:37;16.10;99.90
324;DHT22;149;51.094;17.002;2023-04-25T10:47:07;15.90;99.90
324;DHT22;149;51.094;17.002;2023-04-25T10:49:43;15.40;99.90
324;DHT22;149;51.094;17.002;2023-04-25T10:54:47;15.90;99.90
324;DHT22;149;51.094;17.002;2023-04-25T10:57:32;16.20;99.90
324;DHT22;149;51.094;17.002;2023-04-25T11:00:19;16.40;99.90
324;DHT22;149;51.094;17.002;2023-04-25T11:02:51;15.70;99.90
324;DHT22;149;51.094;17.002;2023-04-25T11:05:35;15.60;99.90
324;DHT22;149;51.094;17.002;2023-04-25T11:08:32;15.50;99.90
324;DHT22;149;51.094;17.002;2023-04-25T11:11:03;15.70;99.90
324;DHT22;149;51.094;17.002;2023-04-25T11:13:31;16.00;99.90
324;DHT22;149;51.094;17.002;2023-04-25T11:15:58;16.40;99.90
324;DHT22;149;51.094;17.002;2023-04-25T11:18:41;16.90;99.90
324;DHT22;149;51.094;17.002;2023-04-25T11:21:08;17.00;99.90
324;DHT22;149;51.094;17.002;2023-04-25T11:23:35;16.70;99.90
324;DHT22;149;51.094;17.002;2023-04-25T11:26:04;16.80;99.90
324;DHT22;149;51.094;17.002;2023-04-25T11:28:31;16.30;99.90
324;DHT22;149;51.094;17.002;2023-04-25T11:30:58;15.80;99.90
324;DHT22;149;51.094;17.002;2023-04-25T11:33:26;15.70;99.90
324;DHT22;149;51.094;17.002;2023-04-25T11:35:56;15.20;99.90
324;DHT22;149;51.094;17.002;2023-04-25T11:38:24;14.90;99.90
324;DHT22;149;51.094;17.002;2023-04-25T11:40:54;14.70;99.90
324;DHT22;149;51.094;17.002;2023-04-25T11:43:22;14.80;99.90
324;DHT22;149;51.094;17.002;2023-04-25T11:45:50;15.20;99.90
324;DHT22;149;51.094;17.002;2023-04-25T11:48:19;15.60;99.90
324;DHT22;149;51.094;17.002;2023-04-25T11:50:51;15.90;99.90
324;DHT22;149;51.094;17.002;2023-04-25T11:53:18;16.10;99.90
324;DHT22;149;51.094;17.002;2023-04-25T11:55:45;16.50;99.90
324;DHT22;149;51.094;17.002;2023-04-25T11:58:12;16.50;99.90
324;DHT22;149;51.094;17.002;2023-04-25T12:00:42;16.70;99.90
324;DHT22;149;51.094;17.002;2023-04-25T12:03:17;16.50;99.90
324;DHT22;149;51.094;17.002;2023-04-25T12:05:45;16.40;99.90
324;DHT22;149;51.094;17.002;2023-04-25T12:08:14;16.20;99.90
324;DHT22;149;51.094;17.002;2023-04-25T12:10:45;15.90;99.90
324;DHT22;149;51.094;17.002;2023-04-25T12:13:25;15.50;99.90
324;DHT22;149;51.094;17.002;2023-04-25T12:15:56;15.00;99.90
324;DHT22;149;51.094;17.002;2023-04-25T12:18:24;14.90;99.90
324;DHT22;149;51.094;17.002;2023-04-25T12:20:55;14.70;99.90
324;DHT22;149;51.094;17.002;2023-04-25T12:23:26;14.50;99.90
324;DHT22;149;51.094;17.002;2023-04-25T12:25:53;14.70;99.90
324;DHT22;149;51.094;17.002;2023-04-25T12:28:22;15.10;99.90
324;DHT22;149;51.094;17.002;2023-04-25T12:31:01;15.50;99.90
324;DHT22;149;51.094;17.002;2023-04-25T12:33:30;15.80;99.90
324;DHT22;149;51.094;17.002;2023-04-25T12:35:58;16.00;99.90
324;DHT22;149;51.094;17.002;2023-04-25T12:38:30;16.20;99.90
324;DHT22;149;51.094;17.002;2023-04-25T12:40:58;16.50;99.90
324;DHT22;149;51.094;17.002;2023-04-25T12:43:25;16.70;99.90
324;DHT22;149;51.094;17.002;2023-04-25T12:45:54;16.50;99.90
324;DHT22;149;51.094;17.002;2023-04-25T12:48:22;16.50;99.90
324;DHT22;149;51.094;17.002;2023-04-25T12:50:49;16.70;99.90
324;DHT22;149;51.094;17.002;2023-04-25T12:53:18;16.30;99.90
324;DHT22;149;51.094;17.002;2023-04-25T12:55:46;16.20;99.90
324;DHT22;149;51.094;17.002;2023-04-25T12:58:14;16.10;99.90
324;DHT22;149;51.094;17.002;2023-04-25T13:00:41;16.10;99.90
324;DHT22;149;51.094;17.002;2023-04-25T13:03:09;16.20;99.90
324;DHT22;149;51.094;17.002;2023-04-25T13:05:37;16.10;99.90
324;DHT22;149;51.094;17.002;2023-04-25T13:08:04;16.00;99.90
324;DHT22;149;51.094;17.002;2023-04-25T13:10:31;15.90;99.90
324;DHT22;149;51.094;17.002;2023-04-25T13:13:00;15.90;99.90
324;DHT22;149;51.094;17.002;2023-04-25T13:15:28;15.70;99.90
324;DHT22;149;51.094;17.002;2023-04-25T13:17:55;15.60;99.90
324;DHT22;149;51.094;17.002;2023-04-25T13:20:23;16.10;99.90
324;DHT22;149;51.094;17.002;2023-04-25T13:22:51;15.90;99.90
324;DHT22;149;51.094;17.002;2023-04-25T13:25:17;15.80;99.90
324;DHT22;149;51.094;17.002;2023-04-25T13:27:45;15.40;99.90
324;DHT22;149;51.094;17.002;2023-04-25T13:30:13;15.20;99.90
324;DHT22;149;51.094;17.002;2023-04-25T13:32:41;15.50;99.90
324;DHT22;149;51.094;17.002;2023-04-25T13:35:12;15.70;99.90
324;DHT22;149;51.094;17.002;2023-04-25T13:37:40;15.80;99.90
324;DHT22;149;51.094;17.002;2023-04-25T13:40:09;15.50;99.90
324;DHT22;149;51.094;17.002;2023-04-25T13:42:37;15.50;99.90
324;DHT22;149;51.094;17.002;2023-04-25T13:45:05;15.50;99.90
324;DHT22;149;51.094;17.002;2023-04-25T13:47:32;15.60;99.90
324;DHT22;149;51.094;17.002;2023-04-25T13:49:59;15.80;99.90
324;DHT22;149;51.094;17.002;2023-04-25T13:52:27;15.60;99.90
324;DHT22;149;51.094;17.002;2023-04-25T13:54:54;15.50;99.90
324;DHT22;149;51.094;17.002;2023-04-25T13:57:21;15.50;99.90
324;DHT22;149;51.094;17.002;2023-04-25T13:59:48;15.50;99.90
324;DHT22;149;51.094;17.002;2023-04-25T14:02:16;15.70;99.90
324;DHT22;149;51.094;17.002;2023-04-25T14:04:45;15.50;99.90
324;DHT22;149;51.094;17.002;2023-04-25T14:07:14;15.50;99.90
324;DHT22;149;51.094;17.002;2023-04-25T14:09:42;15.30;99.90
324;DHT22;149;51.094;17.002;2023-04-25T14:12:10;15.00;99.90
324;DHT22;149;51.094;17.002;2023-04-25T14:14:38;15.90;99.90
324;DHT22;149;51.094;17.002;2023-04-25T14:17:04;15.10;99.90
324;DHT22;149;51.094;17.002;2023-04-25T14:19:33;15.20;99.90
324;DHT22;149;51.094;17.002;2023-04-25T14:22:00;15.30;99.90
324;DHT22;149;51.094;17.002;2023-04-25T14:24:27;15.70;99.90
324;DHT22;149;51.094;17.002;2023-04-25T14:26:54;15.40;99.90
324;DHT22;149;51.094;17.002;2023-04-25T14:29:21;15.60;99.90
324;DHT22;149;51.094;17.002;2023-04-25T14:31:48;15.80;99.90
324;DHT22;149;51.094;17.002;2023-04-25T14:34:15;15.80;99.90
324;DHT22;149;51.094;17.002;2023-04-25T14:36:42;15.60;99.90
324;DHT22;149;51.094;17.002;2023-04-25T14:39:09;15.80;99.90
324;DHT22;149;51.094;17.002;2023-04-25T14:41:36;15.70;99.90
324;DHT22;149;51.094;17.002;2023-04-25T14:44:04;15.60;99.90
324;DHT22;149;51.094;17.002;2023-04-25T14:46:31;14.70;99.90
324;DHT22;149;51.094;17.002;2023-04-25T14:48:58;15.60;99.90
324;DHT22;149;51.094;17.002;2023-04-25T14:51:26;15.90;99.90
324;DHT22;149;51.094;17.002;2023-04-25T14:53:53;15.50;99.90
324;DHT22;149;51.094;17.002;2023-04-25T14:56:20;15.30;99.90
324;DHT22;149;51.094;17.002;2023-04-25T14:58:47;14.30;99.90
324;DHT22;149;51.094;17.002;2023-04-25T15:01:14;14.90;99.90
324;DHT22;149;51.094;17.002;2023-04-25T15:03:42;14.00;99.90
324;DHT22;149;51.094;17.002;2023-04-25T15:06:09;14.50;99.90
324;DHT22;149;51.094;17.002;2023-04-25T15:08:36;13.20;99.90
324;DHT22;149;51.094;17.002;2023-04-25T15:11:05;14.10;99.90
324;DHT22;149;51.094;17.002;2023-04-25T15:13:31;12.80;99.90
324;DHT22;149;51.094;17.002;2023-04-25T15:15:59;12.80;99.90
324;DHT22;149;51.094;17.002;2023-04-25T15:18:26;12.80;99.90
324;DHT22;149;51.094;17.002;2023-04-25T15:20:53;12.50;99.90
324;DHT22;149;51.094;17.002;2023-04-25T15:23:22;12.20;99.90
324;DHT22;149;51.094;17.002;2023-04-25T15:25:51;13.00;99.90
324;DHT22;149;51.094;17.002;2023-04-25T15:28:19;11.80;99.90
324;DHT22;149;51.094;17.002;2023-04-25T15:30:48;12.40;99.90
324;DHT22;149;51.094;17.002;2023-04-25T15:33:15;13.80;99.90
324;DHT22;149;51.094;17.002;2023-04-25T15:35:42;12.90;99.90
324;DHT22;149;51.094;17.002;2023-04-25T15:38:09;12.50;99.90
324;DHT22;149;51.094;17.002;2023-04-25T15:40:37;13.30;99.90
324;DHT22;149;51.094;17.002;2023-04-25T15:45:31;12.30;99.90
324;DHT22;149;51.094;17.002;2023-04-25T15:47:59;12.70;99.90
324;DHT22;149;51.094;17.002;2023-04-25T15:50:27;12.70;99.90
324;DHT22;149;51.094;17.002;2023-04-25T15:52:54;12.50;99.90
324;DHT22;149;51.094;17.002;2023-04-25T15:55:22;12.30;99.90
324;DHT22;149;51.094;17.002;2023-04-25T15:57:49;11.50;99.90
324;DHT22;149;51.094;17.002;2023-04-25T16:00:17;10.80;99.90
324;DHT22;149;51.094;17.002;2023-04-25T16:02:45;10.40;99.90
324;DHT22;149;51.094;17.002;2023-04-25T16:05:15;10.20;99.90
324;DHT22;149;51.094;17.002;2023-04-25T16:07:43;10.20;99.90
324;DHT22;149;51.094;17.002;2023-04-25T16:10:12;10.30;99.90
324;DHT22;149;51.094;17.002;2023-04-25T16:12:39;10.30;99.90
324;DHT22;149;51.094;17.002;2023-04-25T16:15:07;10.20;99.90
324;DHT22;149;51.094;17.002;2023-04-25T16:17:35;10.30;99.90
324;DHT22;149;51.094;17.002;2023-04-25T16:20:02;10.20;99.90
324;DHT22;149;51.094;17.002;2023-04-25T16:22:38;10.30;99.90
324;DHT22;149;51.094;17.002;2023-04-25T16:25:05;10.40;99.90
324;DHT22;149;51.094;17.002;2023-04-25T16:27:32;10.50;99.90
324;DHT22;149;51.094;17.002;2023-04-25T16:30:01;10.60;99.90
324;DHT22;149;51.094;17.002;2023-04-25T16:32:32;10.90;99.90
324;DHT22;149;51.094;17.002;2023-04-25T16:35:00;10.50;99.90
324;DHT22;149;51.094;17.002;2023-04-25T16:37:27;10.20;99.90